sensor_id;sensor_type;location;lat;lon;timestamp;temperature;humidity
56498;DHT22;51790;45.558;12.076;2022-10-15T00:03:39;13.70;86.00
56498;DHT22;51790;45.558;12.076;2022-10-15T00:09:40;13.80;85.50
56498;DHT22;51790;45.558;12.076;2022-10-15T00:15:42;13.80;85.20
56498;DHT22;51790;45.558;12.076;2022-10-15T00:21:43;13.80;85.30
56498;DHT22;51790;45.558;12.076;2022-10-15T00:27:44;13.70;85.40
56498;DHT22;51790;45.558;12.076;2022-10-15T00:33:47;13.70;85.60
56498;DHT22;51790;45.558;12.076;2022-10-15T00:39:48;13.70;85.40
56498;DHT22;51790;45.558;12.076;2022-10-15T00:45:49;13.30;86.20
56498;DHT22;51790;45.558;12.076;2022-10-15T00:52:13;13.40;86.30
56498;DHT22;51790;45.558;12.076;2022-10-15T00:58:13;13.40;85.90
56498;DHT22;51790;45.558;12.076;2022-10-15T01:04:15;13.50;85.60
56498;DHT22;51790;45.558;12.076;2022-10-15T01:10:19;13.70;85.10
56498;DHT22;51790;45.558;12.076;2022-10-15T01:16:34;13.50;85.30
56498;DHT22;51790;45.558;12.076;2022-10-15T01:41:08;13.40;85.50
56498;DHT22;51790;45.558;12.076;2022-10-15T01:47:18;13.50;85.20
56498;DHT22;51790;45.558;12.076;2022-10-15T01:53:22;13.60;84.80
56498;DHT22;51790;45.558;12.076;2022-10-15T01:59:28;13.80;84.00
56498;DHT22;51790;45.558;12.076;2022-10-15T02:05:32;13.90;83.60
56498;DHT22;51790;45.558;12.076;2022-10-15T02:30:10;13.80;83.30
56498;DHT22;51790;45.558;12.076;2022-10-15T02:36:14;13.70;83.50
56498;DHT22;51790;45.558;12.076;2022-10-15T02:42:16;13.70;83.30
56498;DHT22;51790;45.558;12.076;2022-10-15T02:48:17;13.80;83.30
56498;DHT22;51790;45.558;12.076;2022-10-15T02:54:21;13.60;84.00
56498;DHT22;51790;45.558;12.076;2022-10-15T03:00:22;13.60;83.90
56498;DHT22;51790;45.558;12.076;2022-10-15T03:06:24;13.60;83.50
56498;DHT22;51790;45.558;12.076;2022-10-15T03:12:25;13.80;83.50
56498;DHT22;51790;45.558;12.076;2022-10-15T03:18:27;13.90;82.70
56498;DHT22;51790;45.558;12.076;2022-10-15T03:24:29;13.90;83.00
56498;DHT22;51790;45.558;12.076;2022-10-15T03:30:31;13.70;83.50
56498;DHT22;51790;45.558;12.076;2022-10-15T03:36:53;13.80;83.60
56498;DHT22;51790;45.558;12.076;2022-10-15T03:42:54;13.60;83.70
56498;DHT22;51790;45.558;12.076;2022-10-15T03:48:58;13.40;84.20
56498;DHT22;51790;45.558;12.076;2022-10-15T03:54:59;13.60;83.90
56498;DHT22;51790;45.558;12.076;2022-10-15T04:01:01;13.60;84.10
56498;DHT22;51790;45.558;12.076;2022-10-15T04:07:09;13.60;84.10
56498;DHT22;51790;45.558;12.076;2022-10-15T04:13:11;13.80;83.30
56498;DHT22;51790;45.558;12.076;2022-10-15T04:19:15;13.90;83.00
56498;DHT22;51790;45.558;12.076;2022-10-15T04:25:18;14.00;82.90
56498;DHT22;51790;45.558;12.076;2022-10-15T04:31:20;13.90;82.80
56498;DHT22;51790;45.558;12.076;2022-10-15T04:37:23;13.80;82.70
56498;DHT22;51790;45.558;12.076;2022-10-15T04:43:24;13.70;83.80
56498;DHT22;51790;45.558;12.076;2022-10-15T04:49:32;13.70;83.20
56498;DHT22;51790;45.558;12.076;2022-10-15T04:55:36;13.80;83.20
56498;DHT22;51790;45.558;12.076;2022-10-15T05:01:37;13.70;82.90
56498;DHT22;51790;45.558;12.076;2022-10-15T05:07:42;13.90;82.50
56498;DHT22;51790;45.558;12.076;2022-10-15T05:13:44;13.90;82.70
56498;DHT22;51790;45.558;12.076;2022-10-15T05:19:45;14.00;82.50
56498;DHT22;51790;45.558;12.076;2022-10-15T05:26:01;14.00;82.60
56498;DHT22;51790;45.558;12.076;2022-10-15T05:32:02;14.20;82.10
56498;DHT22;51790;45.558;12.076;2022-10-15T05:38:03;14.10;81.70
56498;DHT22;51790;45.558;12.076;2022-10-15T05:44:05;13.90;82.50
56498;DHT22;51790;45.558;12.076;2022-10-15T05:50:06;13.90;82.60
56498;DHT22;51790;45.558;12.076;2022-10-15T05:56:14;14.00;82.10
56498;DHT22;51790;45.558;12.076;2022-10-15T06:02:16;13.90;82.20
56498;DHT22;51790;45.558;12.076;2022-10-15T06:08:17;13.80;83.20
56498;DHT22;51790;45.558;12.076;2022-10-15T06:14:18;13.90;83.00
56498;DHT22;51790;45.558;12.076;2022-10-15T06:20:20;13.90;83.30
56498;DHT22;51790;45.558;12.076;2022-10-15T06:26:21;13.80;83.70
56498;DHT22;51790;45.558;12.076;2022-10-15T06:32:23;14.60;81.20
56498;DHT22;51790;45.558;12.076;2022-10-15T06:38:24;14.70;81.20
56498;DHT22;51790;45.558;12.076;2022-10-15T06:44:25;15.00;80.10
56498;DHT22;51790;45.558;12.076;2022-10-15T06:50:27;15.30;79.50
56498;DHT22;51790;45.558;12.076;2022-10-15T06:56:28;15.60;78.70
56498;DHT22;51790;45.558;12.076;2022-10-15T07:02:29;15.90;77.80
56498;DHT22;51790;45.558;12.076;2022-10-15T07:08:32;15.90;78.50
56498;DHT22;51790;45.558;12.076;2022-10-15T07:14:33;15.40;79.10
56498;DHT22;51790;45.558;12.076;2022-10-15T07:20:35;15.30;80.10
56498;DHT22;51790;45.558;12.076;2022-10-15T07:26:37;15.50;80.00
56498;DHT22;51790;45.558;12.076;2022-10-15T07:32:38;15.70;78.90
56498;DHT22;51790;45.558;12.076;2022-10-15T07:38:39;15.80;78.00
56498;DHT22;51790;45.558;12.076;2022-10-15T07:44:41;16.00;77.80
56498;DHT22;51790;45.558;12.076;2022-10-15T07:50:44;16.20;76.30
56498;DHT22;51790;45.558;12.076;2022-10-15T07:56:46;16.50;75.80
56498;DHT22;51790;45.558;12.076;2022-10-15T08:02:48;17.00;74.30
56498;DHT22;51790;45.558;12.076;2022-10-15T08:08:54;17.70;71.80
56498;DHT22;51790;45.558;12.076;2022-10-15T08:14:55;18.40;68.20
56498;DHT22;51790;45.558;12.076;2022-10-15T08:21:00;18.60;68.70
56498;DHT22;51790;45.558;12.076;2022-10-15T08:27:01;18.80;66.20
56498;DHT22;51790;45.558;12.076;2022-10-15T08:33:02;19.40;64.80
56498;DHT22;51790;45.558;12.076;2022-10-15T08:39:03;19.50;64.90
56498;DHT22;51790;45.558;12.076;2022-10-15T08:45:11;19.20;64.50
56498;DHT22;51790;45.558;12.076;2022-10-15T08:51:16;19.20;65.30
56498;DHT22;51790;45.558;12.076;2022-10-15T09:09:27;19.30;65.00
56498;DHT22;51790;45.558;12.076;2022-10-15T09:15:31;19.50;64.40
56498;DHT22;51790;45.558;12.076;2022-10-15T09:21:34;19.40;64.30
56498;DHT22;51790;45.558;12.076;2022-10-15T09:27:36;20.10;63.20
56498;DHT22;51790;45.558;12.076;2022-10-15T09:39:42;19.50;63.30
56498;DHT22;51790;45.558;12.076;2022-10-15T09:45:49;19.50;64.70
56498;DHT22;51790;45.558;12.076;2022-10-15T09:57:56;19.60;63.70
56498;DHT22;51790;45.558;12.076;2022-10-15T10:04:09;19.60;63.20
56498;DHT22;51790;45.558;12.076;2022-10-15T10:10:24;20.00;63.90
56498;DHT22;51790;45.558;12.076;2022-10-15T10:16:27;20.00;62.40
56498;DHT22;51790;45.558;12.076;2022-10-15T10:22:41;20.20;62.30
56498;DHT22;51790;45.558;12.076;2022-10-15T10:28:45;20.50;62.00
56498;DHT22;51790;45.558;12.076;2022-10-15T10:34:49;20.40;61.50
